Spinnerstown, Pennsylvania
Current Conditions -  °F | °C
As of 1:55 PM on Tuesday 27 Jan 2015 (Local Time) from KXLL Reporting Station
Scattered Clouds Scattered Clouds  
Wind Chill: 19°   Ceiling: Unl
Heat Index: 30°   Visibility: 10mi
Dew Point: 10°   Wind: 16mph
Humidity: 44%   Direction: 310°NW
Pressure: 29.73"   Gusts: 21mph
Location:  40.44°N, 75.44°W
Report Text: KXLL 271855Z AUTO 31014G18KT 10SM SCT034 SCT040 SCT048 M01/M12 A2973 RMK AO2
Loading
Personal Weather Stations






























Interactive Weather Map New forecast layout! Learn more

10-Day Weather Forecast

Advertisements
Track Severe Weather on mobile